Terminal Aerodrome Forecast
Issued by NWS

Home | Current Version | Previous Version | Text Only | Print | Product List | Glossary On
Versions: 1 2 3 4 5 6 7 8 9 10 11 12 13 14 15 16 17 18 19 20 21 22
000
FTUS42 KMHX 171737
TAFOAJ
TAF
KOAJ 171737Z 1718/1818 23006KT P6SM SCT030 BKN060
      TEMPO 1718/1719 BKN015
     FM180700 22008KT P6SM VCSH SCT030 BKN080 WS020/25035KT
     FM181200 24007KT 6SM -SHRA SCT015 OVC035
     FM181500 27009G18KT P6SM VCSH BKN040
      AMD LTD TO CLD VIS AND WIND=

USA.gov is the U.S. government's official web portal to all federal, state and local government web resources and services.